createdAt,value
2017-08-12T00:00:23.909Z,78.58
2017-08-12T00:02:51.709Z,78.26
2017-08-12T00:05:19.358Z,77.58
2017-08-12T00:07:47.106Z,76.78
2017-08-12T00:10:14.737Z,77.65
2017-08-12T00:12:42.383Z,77.43
2017-08-12T00:15:09.973Z,77.89
2017-08-12T00:17:37.628Z,77.85
2017-08-12T00:20:05.243Z,77.65
2017-08-12T00:22:32.859Z,79.04
2017-08-12T00:25:00.462Z,79.96
2017-08-12T00:27:28.091Z,79.29
2017-08-12T00:29:55.683Z,79.89
2017-08-12T00:32:23.346Z,78.65
2017-08-12T00:34:51.099Z,78.88
2017-08-12T00:37:18.792Z,79.43
2017-08-12T00:39:46.521Z,81.90
2017-08-12T00:42:14.230Z,82.38
2017-08-12T00:44:42.153Z,81.58
2017-08-12T00:47:09.863Z,81.19
2017-08-12T00:49:37.583Z,81.96
2017-08-12T00:52:05.311Z,82.04
2017-08-12T00:54:32.945Z,82.34
2017-08-12T00:57:00.573Z,84.46
2017-08-12T00:59:28.278Z,85.21
2017-08-12T01:01:56.004Z,84.94
2017-08-12T01:04:23.619Z,83.91
2017-08-12T01:06:51.210Z,82.45
2017-08-12T01:09:18.837Z,82.99
2017-08-12T01:11:46.422Z,83.92
2017-08-12T01:14:14.496Z,84.32
2017-08-12T01:16:42.376Z,84.05
2017-08-12T01:19:10.246Z,83.46
2017-08-12T01:21:38.072Z,82.39
2017-08-12T01:24:05.940Z,81.29
2017-08-12T01:26:33.798Z,80.34
2017-08-12T01:29:01.494Z,80.04
2017-08-12T01:31:29.266Z,79.45
2017-08-12T01:33:57.060Z,79.05
2017-08-12T01:36:24.762Z,78.98
2017-08-12T01:38:52.419Z,79.28
2017-08-12T01:41:20.324Z,79.40
2017-08-12T01:43:47.939Z,79.62
2017-08-12T01:46:15.538Z,79.42
2017-08-12T01:48:43.174Z,80.16
2017-08-12T01:51:10.765Z,80.60
2017-08-12T01:53:38.558Z,79.97
2017-08-12T01:56:09.178Z,80.16
2017-08-12T01:58:36.956Z,79.91
2017-08-12T02:01:04.620Z,79.63
2017-08-12T02:03:32.307Z,79.10
2017-08-12T02:05:59.943Z,79.33
2017-08-12T02:08:27.860Z,78.92
2017-08-12T02:10:56.290Z,79.03
2017-08-12T02:13:23.992Z,79.61
2017-08-12T02:15:51.687Z,79.24
2017-08-12T02:18:19.406Z,79.76
2017-08-12T02:20:47.149Z,79.86
2017-08-12T02:23:14.812Z,80.43
2017-08-12T02:25:42.459Z,80.67
2017-08-12T02:28:10.148Z,81.32
2017-08-12T02:30:37.810Z,81.27
2017-08-12T02:33:05.561Z,81.47
2017-08-12T02:35:33.427Z,81.46
2017-08-12T02:38:01.165Z,80.72
2017-08-12T02:40:29.058Z,80.30
2017-08-12T02:42:56.869Z,79.07
2017-08-12T02:45:25.038Z,78.04
2017-08-12T02:47:54.351Z,77.96
2017-08-12T02:50:22.629Z,77.83
2017-08-12T02:52:50.592Z,78.02
2017-08-12T02:55:18.425Z,78.10
2017-08-12T02:57:46.230Z,78.27
2017-08-12T03:00:14.094Z,78.51
2017-08-12T03:02:42.873Z,79.22
2017-08-12T03:05:11.056Z,78.71
2017-08-12T03:07:39.442Z,78.26
2017-08-12T03:10:07.413Z,77.78
2017-08-12T03:12:38.657Z,78.04
2017-08-12T03:15:06.597Z,77.75
2017-08-12T03:17:35.053Z,77.59
2017-08-12T03:20:03.178Z,77.26
2017-08-12T03:22:32.534Z,77.27
2017-08-12T03:25:01.159Z,77.08
2017-08-12T03:27:29.219Z,77.05
2017-08-12T03:29:57.358Z,77.06
2017-08-12T03:32:25.995Z,77.02
2017-08-12T03:34:53.863Z,77.45
2017-08-12T03:37:22.197Z,76.83
2017-08-12T03:39:50.505Z,77.40
2017-08-12T03:42:18.419Z,77.63
2017-08-12T03:44:46.441Z,77.84
2017-08-12T03:47:14.255Z,77.93
2017-08-12T03:49:42.367Z,77.75
2017-08-12T03:52:11.215Z,77.75
2017-08-12T03:54:41.240Z,77.97
2017-08-12T03:57:09.221Z,77.78
2017-08-12T03:59:37.036Z,77.70
2017-08-12T04:02:06.328Z,77.53
2017-08-12T04:04:34.288Z,77.46
2017-08-12T04:07:02.171Z,77.88
2017-08-12T04:09:29.982Z,78.07
2017-08-12T04:11:57.844Z,77.99
2017-08-12T04:14:26.062Z,78.18
2017-08-12T04:16:54.151Z,77.98
2017-08-12T04:19:21.894Z,77.89
2017-08-12T04:21:50.157Z,78.17
2017-08-12T04:24:17.743Z,78.14
2017-08-12T04:26:45.362Z,78.23
2017-08-12T04:29:12.950Z,78.02
2017-08-12T04:31:40.582Z,78.46
2017-08-12T04:34:08.183Z,78.40
2017-08-12T04:36:35.805Z,78.53
2017-08-12T04:39:03.387Z,78.86
2017-08-12T04:41:31.024Z,79.00
2017-08-12T04:43:58.675Z,79.41
2017-08-12T04:46:26.326Z,79.81
2017-08-12T04:48:53.922Z,79.73
2017-08-12T04:51:21.542Z,79.41
2017-08-12T04:53:49.344Z,79.69
2017-08-12T04:56:18.895Z,78.87
2017-08-12T04:58:46.909Z,79.53
2017-08-12T05:01:15.933Z,80.15
2017-08-12T05:03:43.797Z,79.96
2017-08-12T05:06:11.607Z,79.89
2017-08-12T05:08:39.527Z,80.21
2017-08-12T05:11:07.180Z,80.04
2017-08-12T05:13:34.931Z,80.18
2017-08-12T05:16:02.854Z,80.35
2017-08-12T05:18:33.690Z,80.36
2017-08-12T05:21:01.482Z,81.07
2017-08-12T05:23:29.329Z,81.03
2017-08-12T05:25:57.228Z,81.07
2017-08-12T05:28:26.128Z,81.17
2017-08-12T05:30:54.562Z,81.62
2017-08-12T05:33:22.531Z,81.35
2017-08-12T05:35:51.670Z,81.43
2017-08-12T05:38:20.513Z,81.59
2017-08-12T05:41:00.938Z,81.60
2017-08-12T05:43:28.850Z,81.85
2017-08-12T05:45:56.919Z,81.90
2017-08-12T05:48:24.746Z,81.76
2017-08-12T05:50:52.513Z,81.53
2017-08-12T05:53:20.363Z,81.91
2017-08-12T05:55:48.272Z,81.93
2017-08-12T05:58:16.188Z,81.95
2017-08-12T06:00:43.874Z,82.45
2017-08-12T06:03:12.495Z,82.26
2017-08-12T06:05:40.639Z,82.15
2017-08-12T06:08:08.850Z,82.84
2017-08-12T06:10:36.814Z,82.96
2017-08-12T06:13:04.639Z,83.27
2017-08-12T06:15:33.326Z,83.07
2017-08-12T06:18:04.806Z,83.57
2017-08-12T06:20:32.802Z,84.00
2017-08-12T06:23:00.816Z,84.27
2017-08-12T06:25:28.428Z,84.40
2017-08-12T06:27:56.270Z,84.74
2017-08-12T06:30:24.096Z,85.47
2017-08-12T06:32:51.743Z,85.55
2017-08-12T06:35:19.354Z,85.38
2017-08-12T06:37:47.009Z,85.15
2017-08-12T06:40:14.639Z,85.48
2017-08-12T06:42:42.301Z,85.70
2017-08-12T06:45:09.912Z,86.13
2017-08-12T06:47:37.515Z,86.76
2017-08-12T06:50:05.152Z,85.83
2017-08-12T06:52:32.771Z,85.76
2017-08-12T06:55:00.383Z,85.99
2017-08-12T06:57:28.166Z,86.13
2017-08-12T06:59:55.819Z,85.91
2017-08-12T07:02:23.429Z,86.03
2017-08-12T07:04:51.046Z,85.75
2017-08-12T07:07:18.638Z,85.82
2017-08-12T07:09:46.282Z,85.89
2017-08-12T07:12:13.895Z,86.53
2017-08-12T07:14:41.547Z,86.97
2017-08-12T07:17:09.232Z,87.22
2017-08-12T07:19:36.843Z,87.83
2017-08-12T07:22:04.511Z,87.61
2017-08-12T07:24:32.146Z,88.13
2017-08-12T07:26:59.783Z,88.76
2017-08-12T07:29:27.403Z,89.04
2017-08-12T07:31:55.036Z,90.04
2017-08-12T07:34:22.883Z,90.31
2017-08-12T07:36:50.530Z,90.82
2017-08-12T07:39:18.203Z,91.27
2017-08-12T07:41:45.876Z,92.00
2017-08-12T07:44:13.649Z,92.58
2017-08-12T07:46:47.316Z,92.95
2017-08-12T07:49:15.194Z,93.37
2017-08-12T07:51:42.902Z,93.39
2017-08-12T07:54:11.891Z,93.75
2017-08-12T07:56:39.573Z,94.07
2017-08-12T07:59:07.566Z,94.21
2017-08-12T08:01:35.327Z,94.28
2017-08-12T08:04:03.139Z,94.74
2017-08-12T08:06:30.952Z,95.54
2017-08-12T08:08:59.850Z,95.75
2017-08-12T08:11:27.612Z,96.04
2017-08-12T08:13:55.517Z,96.27
2017-08-12T08:16:23.385Z,96.18
2017-08-12T08:18:51.151Z,96.27
2017-08-12T08:21:19.020Z,96.61
2017-08-12T08:24:09.356Z,96.78
2017-08-12T08:26:40.837Z,96.64
2017-08-12T08:29:15.291Z,96.73
2017-08-12T08:34:34.654Z,96.54
2017-08-12T08:37:02.548Z,96.58
2017-08-12T08:39:39.324Z,96.53
2017-08-12T08:44:44.835Z,95.94
2017-08-12T08:47:24.028Z,96.02
2017-08-12T08:49:58.185Z,96.31
2017-08-12T08:52:27.153Z,96.11
2017-08-12T08:54:55.520Z,96.18
2017-08-12T08:57:40.637Z,96.02
2017-08-12T09:00:08.769Z,95.80
2017-08-12T09:02:50.415Z,96.17
2017-08-12T09:05:18.360Z,96.53
2017-08-12T09:07:46.659Z,96.74
2017-08-12T09:10:16.266Z,96.87
2017-08-12T09:12:47.505Z,96.48
2017-08-12T09:15:15.113Z,96.82
2017-08-12T09:17:42.769Z,97.22
2017-08-12T09:20:10.362Z,97.40
2017-08-12T09:22:38.006Z,97.28
2017-08-12T09:25:05.609Z,97.35
2017-08-12T09:27:33.236Z,97.66
2017-08-12T09:30:00.911Z,97.68
2017-08-12T09:32:28.531Z,97.48
2017-08-12T09:40:32.635Z,97.31
2017-08-12T09:48:26.776Z,97.77
2017-08-12T09:50:54.587Z,97.63
2017-08-12T09:53:22.238Z,97.73
2017-08-12T09:55:50.288Z,97.73
2017-08-12T09:58:18.151Z,97.29
2017-08-12T10:00:45.888Z,97.13
2017-08-12T10:03:13.991Z,96.93
2017-08-12T10:05:41.627Z,97.12
2017-08-12T10:08:09.231Z,97.24
2017-08-12T10:10:36.862Z,97.33
2017-08-12T10:13:04.470Z,97.17
2017-08-12T10:15:32.082Z,96.90
2017-08-12T10:18:09.118Z,96.31
2017-08-12T10:20:37.193Z,96.35
2017-08-12T10:23:05.921Z,96.33
2017-08-12T10:25:34.923Z,96.16
2017-08-12T10:28:11.524Z,96.43
2017-08-12T10:30:39.346Z,96.47
2017-08-12T10:33:10.422Z,96.80
2017-08-12T10:35:38.769Z,96.86
2017-08-12T10:38:07.072Z,97.03
2017-08-12T10:40:34.771Z,96.99
2017-08-12T10:43:02.508Z,96.67
2017-08-12T10:45:30.429Z,96.75
2017-08-12T10:47:58.536Z,96.69
2017-08-12T10:50:28.537Z,96.86
2017-08-12T10:52:56.645Z,97.21
2017-08-12T10:55:24.494Z,97.16
2017-08-12T10:57:52.175Z,97.20
2017-08-12T11:00:19.983Z,97.22
2017-08-12T11:02:47.675Z,97.26
2017-08-12T11:05:15.339Z,97.46
2017-08-12T11:07:43.126Z,97.48
2017-08-12T11:10:10.880Z,97.67
2017-08-12T11:12:38.655Z,97.68
2017-08-12T11:15:06.366Z,97.54
2017-08-12T11:17:34.007Z,97.56
2017-08-12T11:20:01.554Z,97.91
2017-08-12T11:22:29.208Z,97.99
2017-08-12T11:24:56.832Z,97.96
2017-08-12T11:27:24.424Z,97.89
2017-08-12T11:29:52.063Z,97.92
2017-08-12T11:32:19.743Z,97.99
2017-08-12T11:34:47.370Z,98.00
2017-08-12T11:37:14.971Z,97.68
2017-08-12T11:39:42.600Z,97.52
2017-08-12T11:42:10.204Z,97.65
2017-08-12T11:44:37.831Z,97.85
2017-08-12T11:47:05.443Z,97.85
2017-08-12T11:49:33.069Z,97.91
2017-08-12T11:52:00.696Z,98.14
2017-08-12T11:54:28.557Z,98.10
2017-08-12T11:56:56.195Z,98.20
2017-08-12T11:59:23.826Z,98.24
2017-08-12T12:01:51.428Z,98.08
2017-08-12T12:04:19.099Z,98.02
2017-08-12T12:06:46.710Z,97.97
2017-08-12T12:09:14.406Z,97.97
2017-08-12T12:11:42.025Z,98.05
2017-08-12T12:14:09.659Z,98.01
2017-08-12T12:16:37.259Z,97.58
2017-08-12T12:19:04.876Z,97.50
2017-08-12T12:21:32.506Z,97.40
2017-08-12T12:24:00.095Z,96.21
2017-08-12T12:26:27.718Z,95.48
2017-08-12T12:28:55.362Z,94.56
2017-08-12T12:31:23.846Z,93.96
2017-08-12T12:33:51.443Z,93.71
2017-08-12T12:36:19.069Z,93.28
2017-08-12T12:38:46.728Z,93.35
2017-08-12T12:41:14.376Z,93.59
2017-08-12T12:43:41.967Z,92.39
2017-08-12T12:46:09.613Z,91.06
2017-08-12T12:48:37.215Z,92.43
2017-08-12T12:51:04.819Z,91.47
2017-08-12T12:53:32.490Z,91.08
2017-08-12T12:56:00.100Z,90.82
2017-08-12T12:58:27.727Z,90.16
2017-08-12T13:00:55.379Z,89.80
2017-08-12T13:03:22.989Z,89.47
2017-08-12T13:05:50.584Z,89.53
2017-08-12T13:08:19.874Z,87.76
2017-08-12T13:10:47.466Z,87.67
2017-08-12T13:13:15.098Z,87.52
2017-08-12T13:15:42.715Z,86.96
2017-08-12T13:18:10.404Z,87.18
2017-08-12T13:20:38.015Z,86.85
2017-08-12T13:23:05.655Z,87.74
2017-08-12T13:25:33.241Z,87.18
2017-08-12T13:28:00.851Z,87.87
2017-08-12T13:30:28.490Z,87.95
2017-08-12T13:32:56.140Z,87.22
2017-08-12T13:35:23.758Z,86.91
2017-08-12T13:37:51.361Z,86.85
2017-08-12T13:40:19.029Z,87.34
2017-08-12T13:42:46.634Z,86.71
2017-08-12T13:45:14.251Z,87.34
2017-08-12T13:47:41.870Z,86.64
2017-08-12T13:50:09.526Z,86.41
2017-08-12T13:52:37.126Z,86.24
2017-08-12T13:55:04.763Z,85.73
2017-08-12T13:57:32.406Z,84.83
2017-08-12T14:00:00.043Z,83.76
2017-08-12T14:02:27.701Z,84.24
2017-08-12T14:04:55.330Z,83.88
2017-08-12T14:07:23.010Z,84.14
2017-08-12T14:09:50.634Z,83.68
2017-08-12T14:12:18.234Z,84.22
2017-08-12T14:14:45.863Z,83.39
2017-08-12T14:17:13.458Z,83.44
2017-08-12T14:19:41.091Z,83.30
2017-08-12T14:22:08.707Z,83.86
2017-08-12T14:24:36.348Z,83.65
2017-08-12T14:27:03.939Z,82.94
2017-08-12T14:29:31.578Z,83.57
2017-08-12T14:31:59.181Z,83.77
2017-08-12T14:34:26.878Z,83.59
2017-08-12T14:36:54.471Z,83.29
2017-08-12T14:39:22.096Z,83.91
2017-08-12T14:41:49.703Z,84.42
2017-08-12T14:44:17.353Z,84.61
2017-08-12T14:46:44.963Z,84.45
2017-08-12T14:49:12.589Z,84.79
2017-08-12T14:51:40.178Z,84.20
2017-08-12T14:54:07.809Z,83.79
2017-08-12T14:56:35.450Z,84.12
2017-08-12T14:59:03.141Z,84.22
2017-08-12T15:01:30.778Z,84.37
2017-08-12T15:03:58.361Z,84.82
2017-08-12T15:06:25.997Z,84.89
2017-08-12T15:08:53.646Z,85.09
2017-08-12T15:11:21.238Z,85.00
2017-08-12T15:13:48.839Z,85.22
2017-08-12T15:16:16.467Z,85.04
2017-08-12T15:18:44.069Z,85.39
2017-08-12T15:21:11.706Z,85.21
2017-08-12T15:23:39.337Z,85.46
2017-08-12T15:26:06.970Z,85.60
2017-08-12T15:28:34.567Z,85.81
2017-08-12T15:31:02.199Z,85.79
2017-08-12T15:33:29.804Z,85.63
2017-08-12T15:35:57.503Z,85.85
2017-08-12T15:38:25.106Z,85.68
2017-08-12T15:40:52.739Z,85.75
2017-08-12T15:43:20.424Z,85.91
2017-08-12T15:45:48.046Z,85.79
2017-08-12T15:48:15.630Z,85.62
2017-08-12T15:50:43.273Z,85.73
2017-08-12T15:53:10.878Z,86.10
2017-08-12T15:55:38.518Z,85.47
2017-08-12T15:58:06.113Z,85.55
2017-08-12T16:00:33.746Z,84.68
2017-08-12T16:03:01.434Z,84.59
2017-08-12T16:05:29.072Z,84.30
2017-08-12T16:07:56.686Z,84.42
2017-08-12T16:10:24.304Z,84.64
2017-08-12T16:12:51.926Z,84.38
2017-08-12T16:15:19.518Z,84.32
2017-08-12T16:17:47.147Z,84.09
2017-08-12T16:20:14.743Z,84.65
2017-08-12T16:22:42.381Z,84.38
2017-08-12T16:25:09.975Z,84.48
2017-08-12T16:27:37.605Z,84.61
2017-08-12T16:30:05.243Z,84.46
2017-08-12T16:32:32.859Z,85.07
2017-08-12T16:35:00.455Z,85.74
2017-08-12T16:37:28.137Z,86.89
2017-08-12T16:39:55.741Z,88.17
2017-08-12T16:42:23.353Z,89.13
2017-08-12T16:44:50.991Z,90.32
2017-08-12T16:47:18.575Z,91.19
2017-08-12T16:49:46.202Z,92.50
2017-08-12T16:52:13.860Z,92.43
2017-08-12T16:54:41.513Z,92.86
2017-08-12T16:57:09.138Z,93.11
2017-08-12T16:59:36.862Z,93.14
2017-08-12T17:02:04.478Z,93.28
2017-08-12T17:04:32.135Z,93.46
2017-08-12T17:06:59.744Z,93.42
2017-08-12T17:09:27.402Z,92.99
2017-08-12T17:11:55.019Z,92.91
2017-08-12T17:14:22.655Z,92.11
2017-08-12T17:16:50.259Z,92.03
2017-08-12T17:19:17.854Z,91.43
2017-08-12T17:21:45.551Z,91.44
2017-08-12T17:24:13.134Z,91.14
2017-08-12T17:26:40.792Z,90.91
2017-08-12T17:29:08.435Z,91.01
2017-08-12T17:31:36.065Z,90.23
2017-08-12T17:34:03.654Z,89.43
2017-08-12T17:36:31.330Z,89.52
2017-08-12T17:38:58.945Z,88.86
2017-08-12T17:41:26.631Z,89.28
2017-08-12T17:43:54.263Z,89.48
2017-08-12T17:46:21.912Z,89.46
2017-08-12T17:48:49.510Z,89.48
2017-08-12T17:51:17.123Z,89.13
2017-08-12T17:53:44.749Z,89.27
2017-08-12T17:56:12.417Z,89.25
2017-08-12T17:58:40.015Z,89.29
2017-08-12T18:01:07.636Z,89.57
2017-08-12T18:03:35.542Z,89.49
2017-08-12T18:06:03.169Z,89.03
2017-08-12T18:08:30.794Z,89.39
2017-08-12T18:10:58.412Z,89.67
2017-08-12T18:13:26.054Z,89.96
2017-08-12T18:15:53.708Z,90.30
2017-08-12T18:18:21.350Z,90.29
2017-08-12T18:20:48.967Z,89.98
2017-08-12T18:23:16.613Z,90.02
2017-08-12T18:25:44.256Z,90.23
2017-08-12T18:28:11.892Z,89.75
2017-08-12T18:30:39.511Z,89.77
2017-08-12T18:33:07.137Z,90.03
2017-08-12T18:35:34.741Z,89.73
2017-08-12T18:38:02.390Z,89.92
2017-08-12T18:40:29.992Z,90.06
2017-08-12T18:42:57.656Z,89.84
2017-08-12T18:45:25.246Z,89.65
2017-08-12T18:47:52.865Z,89.46
2017-08-12T18:50:20.517Z,89.55
2017-08-12T18:52:48.110Z,89.83
2017-08-12T18:55:15.738Z,89.62
2017-08-12T18:57:43.355Z,89.46
2017-08-12T19:00:10.994Z,89.21
2017-08-12T19:02:38.591Z,89.24
2017-08-12T19:05:06.227Z,88.97
2017-08-12T19:07:33.823Z,89.20
2017-08-12T19:10:01.453Z,89.14
2017-08-12T19:12:29.056Z,89.24
2017-08-12T19:14:56.675Z,89.19
2017-08-12T19:17:24.296Z,89.50
2017-08-12T19:19:51.939Z,89.44
2017-08-12T19:22:19.551Z,89.71
2017-08-12T19:24:47.171Z,89.52
2017-08-12T19:27:14.786Z,89.93
2017-08-12T19:29:42.418Z,89.98
2017-08-12T19:32:10.005Z,90.40
2017-08-12T19:34:37.660Z,91.28
2017-08-12T19:37:05.262Z,92.10
2017-08-12T19:39:32.882Z,92.71
2017-08-12T19:42:00.490Z,93.35
2017-08-12T19:44:28.117Z,93.54
2017-08-12T19:46:55.727Z,93.83
2017-08-12T19:49:23.354Z,94.17
2017-08-12T19:51:50.994Z,94.91
2017-08-12T19:54:18.639Z,95.08
2017-08-12T19:56:46.242Z,95.34
2017-08-12T19:59:13.863Z,95.33
2017-08-12T20:01:41.486Z,95.63
2017-08-12T20:04:09.099Z,95.73
2017-08-12T20:06:36.710Z,95.83
2017-08-12T20:09:04.347Z,95.97
2017-08-12T20:11:31.949Z,96.17
2017-08-12T20:13:59.538Z,96.31
2017-08-12T20:16:27.167Z,96.37
2017-08-12T20:18:54.814Z,96.55
2017-08-12T20:21:22.419Z,96.64
2017-08-12T20:23:50.014Z,96.80
2017-08-12T20:26:17.663Z,96.96
2017-08-12T20:28:45.259Z,97.21
2017-08-12T20:31:12.930Z,97.29
2017-08-12T20:33:40.558Z,97.40
2017-08-12T20:36:08.249Z,97.50
2017-08-12T20:38:35.854Z,97.57
2017-08-12T20:41:03.486Z,97.67
2017-08-12T20:43:31.103Z,97.63
2017-08-12T20:45:58.742Z,97.63
2017-08-12T20:48:26.348Z,97.60
2017-08-12T20:50:53.991Z,97.57
2017-08-12T20:53:21.589Z,97.52
2017-08-12T20:55:49.223Z,97.57
2017-08-12T20:58:16.828Z,97.58
2017-08-12T21:00:44.458Z,97.62
2017-08-12T21:03:12.059Z,97.59
2017-08-12T21:05:39.763Z,97.76
2017-08-12T21:08:07.378Z,97.78
2017-08-12T21:10:35.027Z,97.83
2017-08-12T21:13:02.652Z,97.84
2017-08-12T21:15:30.266Z,97.75
2017-08-12T21:17:57.923Z,97.74
2017-08-12T21:20:25.548Z,97.79
2017-08-12T21:22:53.191Z,97.79
2017-08-12T21:25:20.796Z,97.40
2017-08-12T21:27:48.422Z,97.36
2017-08-12T21:30:16.160Z,97.39
2017-08-12T21:32:43.758Z,97.42
2017-08-12T21:35:11.397Z,97.31
2017-08-12T21:37:39.047Z,97.14
2017-08-12T21:40:06.644Z,97.07
2017-08-12T21:42:34.278Z,97.00
2017-08-12T21:45:01.870Z,96.92
2017-08-12T21:47:29.508Z,96.91
2017-08-12T21:49:57.099Z,96.91
2017-08-12T21:52:24.707Z,96.84
2017-08-12T21:54:52.309Z,96.65
2017-08-12T21:57:19.927Z,96.50
2017-08-12T21:59:47.558Z,96.33
2017-08-12T22:02:15.183Z,96.31
2017-08-12T22:04:42.778Z,96.29
2017-08-12T22:07:10.430Z,96.34
2017-08-12T22:09:38.028Z,96.14
2017-08-12T22:12:05.655Z,96.14
2017-08-12T22:14:33.243Z,96.22
2017-08-12T22:17:00.882Z,96.25
2017-08-12T22:19:28.483Z,96.24
2017-08-12T22:21:56.114Z,96.40
2017-08-12T22:24:23.726Z,96.45
2017-08-12T22:26:51.342Z,96.49
2017-08-12T22:29:18.963Z,96.56
2017-08-12T22:31:46.610Z,96.52
2017-08-12T22:34:14.203Z,96.57
2017-08-12T22:36:41.846Z,96.58
2017-08-12T22:39:09.444Z,96.64
2017-08-12T22:41:37.091Z,96.63
2017-08-12T22:44:04.696Z,96.66
2017-08-12T22:46:32.310Z,96.74
2017-08-12T22:48:59.946Z,96.77
2017-08-12T22:51:27.566Z,96.88
2017-08-12T22:53:55.169Z,97.01
2017-08-12T22:56:22.810Z,97.08
2017-08-12T22:58:50.422Z,97.20
2017-08-12T23:01:18.058Z,97.26
2017-08-12T23:03:45.658Z,97.30
2017-08-12T23:06:13.347Z,97.30
2017-08-12T23:08:40.937Z,97.27
2017-08-12T23:11:08.533Z,97.18
2017-08-12T23:13:36.173Z,97.11
2017-08-12T23:16:03.821Z,97.14
2017-08-12T23:18:31.452Z,96.93
2017-08-12T23:20:59.050Z,96.86
2017-08-12T23:23:26.672Z,96.81
2017-08-12T23:25:54.266Z,96.80
2017-08-12T23:28:21.898Z,96.73
2017-08-12T23:30:49.483Z,96.72
2017-08-12T23:33:17.118Z,96.60
2017-08-12T23:35:44.759Z,96.36
2017-08-12T23:38:12.383Z,96.31
2017-08-12T23:40:39.995Z,96.26
2017-08-12T23:43:07.622Z,96.24
2017-08-12T23:45:35.246Z,96.33
2017-08-12T23:48:02.874Z,96.44
2017-08-12T23:50:30.500Z,96.56
2017-08-12T23:52:58.152Z,96.71
2017-08-12T23:55:25.746Z,96.70
2017-08-12T23:57:53.370Z,96.75
